Wartrace, Tennessee
Current Conditions -  °F | °C
As of 6:15 PM on Friday 19 Dec 2014 (Local Time) from KSYI Reporting Station
Clear Clear  
Wind Chill: 32°   Ceiling: Unl
Heat Index: 37°   Visibility: 10mi
Dew Point: 30°   Wind: 7mph
Humidity: 75%   Direction: 20°NNE
Pressure: 30.21"   Gusts: NA
Location:  35.53°N, 86.33°W
Report Text: KSYI 200015Z AUTO 02006KT 10SM CLR 03/M01 A3021 RMK
Loading
Personal Weather Stations






























Interactive Weather Map New forecast layout! Learn more

10-Day Weather Forecast

Advertisements
Track Severe Weather on mobile